sensor_id;sensor_type;location;lat;lon;timestamp;P1;durP1;ratioP1;P2;durP2;ratioP2
79202;SDS011;68630;42.748;23.278;2023-08-12T00:04:42;4.08;;;3.22;;
79202;SDS011;68630;42.748;23.278;2023-08-12T00:07:09;7.65;;;3.85;;
79202;SDS011;68630;42.748;23.278;2023-08-12T00:09:37;6.50;;;3.58;;
79202;SDS011;68630;42.748;23.278;2023-08-12T00:12:04;9.20;;;3.40;;
79202;SDS011;68630;42.748;23.278;2023-08-12T00:14:32;4.90;;;3.22;;
79202;SDS011;68630;42.748;23.278;2023-08-12T00:16:59;7.30;;;3.90;;
79202;SDS011;68630;42.748;23.278;2023-08-12T00:19:33;10.60;;;3.75;;
79202;SDS011;68630;42.748;23.278;2023-08-12T00:21:57;7.92;;;3.37;;
79202;SDS011;68630;42.748;23.278;2023-08-12T00:24:24;5.37;;;3.70;;
79202;SDS011;68630;42.748;23.278;2023-08-12T00:26:52;5.20;;;3.80;;
79202;SDS011;68630;42.748;23.278;2023-08-12T00:29:19;8.15;;;3.47;;
79202;SDS011;68630;42.748;23.278;2023-08-12T00:31:47;5.35;;;3.52;;
79202;SDS011;68630;42.748;23.278;2023-08-12T00:34:15;5.00;;;3.17;;
79202;SDS011;68630;42.748;23.278;2023-08-12T00:36:43;5.28;;;3.55;;
79202;SDS011;68630;42.748;23.278;2023-08-12T00:39:11;5.12;;;3.80;;
79202;SDS011;68630;42.748;23.278;2023-08-12T00:41:38;8.93;;;3.58;;
79202;SDS011;68630;42.748;23.278;2023-08-12T00:44:06;5.67;;;3.42;;
79202;SDS011;68630;42.748;23.278;2023-08-12T00:46:33;5.28;;;3.45;;
79202;SDS011;68630;42.748;23.278;2023-08-12T00:49:02;9.33;;;4.05;;
79202;SDS011;68630;42.748;23.278;2023-08-12T00:51:30;5.37;;;3.45;;
79202;SDS011;68630;42.748;23.278;2023-08-12T00:53:58;5.05;;;3.35;;
79202;SDS011;68630;42.748;23.278;2023-08-12T00:56:27;5.35;;;3.58;;
79202;SDS011;68630;42.748;23.278;2023-08-12T00:58:56;6.92;;;3.52;;
79202;SDS011;68630;42.748;23.278;2023-08-12T01:01:26;7.17;;;3.70;;
79202;SDS011;68630;42.748;23.278;2023-08-12T01:03:53;9.10;;;3.80;;
79202;SDS011;68630;42.748;23.278;2023-08-12T01:06:21;5.45;;;3.62;;
79202;SDS011;68630;42.748;23.278;2023-08-12T01:08:49;5.70;;;3.75;;
79202;SDS011;68630;42.748;23.278;2023-08-12T01:14:23;5.97;;;3.35;;
79202;SDS011;68630;42.748;23.278;2023-08-12T01:16:57;5.92;;;4.03;;
79202;SDS011;68630;42.748;23.278;2023-08-12T01:19:35;6.55;;;3.70;;
79202;SDS011;68630;42.748;23.278;2023-08-12T01:22:06;8.25;;;3.42;;
79202;SDS011;68630;42.748;23.278;2023-08-12T01:24:37;5.37;;;3.60;;
79202;SDS011;68630;42.748;23.278;2023-08-12T01:27:07;7.25;;;3.70;;
79202;SDS011;68630;42.748;23.278;2023-08-12T01:29:36;5.70;;;3.67;;
79202;SDS011;68630;42.748;23.278;2023-08-12T01:34:55;5.72;;;3.67;;
79202;SDS011;68630;42.748;23.278;2023-08-12T01:37:30;7.87;;;3.33;;
79202;SDS011;68630;42.748;23.278;2023-08-12T01:40:00;7.20;;;3.60;;
79202;SDS011;68630;42.748;23.278;2023-08-12T01:42:34;5.72;;;3.50;;
79202;SDS011;68630;42.748;23.278;2023-08-12T01:45:04;7.47;;;3.33;;
79202;SDS011;68630;42.748;23.278;2023-08-12T01:47:32;8.28;;;3.45;;
79202;SDS011;68630;42.748;23.278;2023-08-12T01:50:00;6.20;;;3.40;;
79202;SDS011;68630;42.748;23.278;2023-08-12T01:52:28;5.62;;;3.50;;
79202;SDS011;68630;42.748;23.278;2023-08-12T01:54:55;5.22;;;3.10;;
79202;SDS011;68630;42.748;23.278;2023-08-12T01:57:23;8.38;;;3.08;;
79202;SDS011;68630;42.748;23.278;2023-08-12T01:59:51;7.85;;;3.22;;
79202;SDS011;68630;42.748;23.278;2023-08-12T02:02:18;7.03;;;3.27;;
79202;SDS011;68630;42.748;23.278;2023-08-12T02:04:46;8.45;;;3.30;;
79202;SDS011;68630;42.748;23.278;2023-08-12T02:07:13;7.35;;;3.40;;
79202;SDS011;68630;42.748;23.278;2023-08-12T02:09:41;4.97;;;3.55;;
79202;SDS011;68630;42.748;23.278;2023-08-12T02:12:08;6.55;;;3.65;;
79202;SDS011;68630;42.748;23.278;2023-08-12T02:14:36;6.87;;;3.30;;
79202;SDS011;68630;42.748;23.278;2023-08-12T02:17:04;8.58;;;3.50;;
79202;SDS011;68630;42.748;23.278;2023-08-12T02:19:32;8.88;;;3.80;;
79202;SDS011;68630;42.748;23.278;2023-08-12T02:22:00;5.75;;;3.58;;
79202;SDS011;68630;42.748;23.278;2023-08-12T02:24:29;4.90;;;3.45;;
79202;SDS011;68630;42.748;23.278;2023-08-12T02:26:57;4.95;;;3.75;;
79202;SDS011;68630;42.748;23.278;2023-08-12T02:29:25;6.40;;;3.85;;
79202;SDS011;68630;42.748;23.278;2023-08-12T02:31:52;6.90;;;3.80;;
79202;SDS011;68630;42.748;23.278;2023-08-12T02:34:20;6.47;;;3.72;;
79202;SDS011;68630;42.748;23.278;2023-08-12T02:36:47;4.25;;;3.40;;
79202;SDS011;68630;42.748;23.278;2023-08-12T02:39:15;11.60;;;4.12;;
79202;SDS011;68630;42.748;23.278;2023-08-12T02:41:42;6.12;;;3.62;;
79202;SDS011;68630;42.748;23.278;2023-08-12T02:44:10;10.55;;;4.87;;
79202;SDS011;68630;42.748;23.278;2023-08-12T02:46:37;10.93;;;4.08;;
79202;SDS011;68630;42.748;23.278;2023-08-12T02:49:05;9.40;;;4.08;;
79202;SDS011;68630;42.748;23.278;2023-08-12T02:51:32;15.48;;;4.17;;
79202;SDS011;68630;42.748;23.278;2023-08-12T02:54:00;11.70;;;4.25;;
79202;SDS011;68630;42.748;23.278;2023-08-12T02:56:27;12.98;;;4.55;;
79202;SDS011;68630;42.748;23.278;2023-08-12T02:58:55;12.80;;;4.00;;
79202;SDS011;68630;42.748;23.278;2023-08-12T03:01:23;8.13;;;4.10;;
79202;SDS011;68630;42.748;23.278;2023-08-12T03:03:52;5.70;;;4.05;;
79202;SDS011;68630;42.748;23.278;2023-08-12T03:06:19;7.20;;;4.03;;
79202;SDS011;68630;42.748;23.278;2023-08-12T03:08:47;7.60;;;4.00;;
79202;SDS011;68630;42.748;23.278;2023-08-12T03:11:14;16.07;;;4.05;;
79202;SDS011;68630;42.748;23.278;2023-08-12T03:13:44;11.45;;;4.20;;
79202;SDS011;68630;42.748;23.278;2023-08-12T03:16:13;16.12;;;3.92;;
79202;SDS011;68630;42.748;23.278;2023-08-12T03:18:41;9.05;;;3.77;;
79202;SDS011;68630;42.748;23.278;2023-08-12T03:21:09;8.68;;;4.05;;
79202;SDS011;68630;42.748;23.278;2023-08-12T03:23:37;6.80;;;3.70;;
79202;SDS011;68630;42.748;23.278;2023-08-12T03:26:04;8.70;;;4.35;;
79202;SDS011;68630;42.748;23.278;2023-08-12T03:28:32;7.60;;;4.25;;
79202;SDS011;68630;42.748;23.278;2023-08-12T03:30:59;11.22;;;4.20;;
79202;SDS011;68630;42.748;23.278;2023-08-12T03:33:27;13.18;;;5.33;;
79202;SDS011;68630;42.748;23.278;2023-08-12T03:35:54;7.00;;;4.87;;
79202;SDS011;68630;42.748;23.278;2023-08-12T03:38:22;19.82;;;5.47;;
79202;SDS011;68630;42.748;23.278;2023-08-12T03:40:50;9.58;;;5.25;;
79202;SDS011;68630;42.748;23.278;2023-08-12T03:43:17;14.03;;;5.10;;
79202;SDS011;68630;42.748;23.278;2023-08-12T03:45:45;18.20;;;5.12;;
79202;SDS011;68630;42.748;23.278;2023-08-12T03:48:12;14.10;;;5.20;;
79202;SDS011;68630;42.748;23.278;2023-08-12T03:50:40;17.07;;;4.70;;
79202;SDS011;68630;42.748;23.278;2023-08-12T03:53:08;20.23;;;4.58;;
79202;SDS011;68630;42.748;23.278;2023-08-12T03:55:35;17.80;;;4.53;;
79202;SDS011;68630;42.748;23.278;2023-08-12T03:58:03;12.33;;;3.90;;
79202;SDS011;68630;42.748;23.278;2023-08-12T04:00:31;24.63;;;4.20;;
79202;SDS011;68630;42.748;23.278;2023-08-12T04:02:58;31.37;;;4.42;;
79202;SDS011;68630;42.748;23.278;2023-08-12T04:05:26;52.30;;;5.40;;
79202;SDS011;68630;42.748;23.278;2023-08-12T04:07:54;40.88;;;4.72;;
79202;SDS011;68630;42.748;23.278;2023-08-12T04:10:21;24.45;;;3.77;;
79202;SDS011;68630;42.748;23.278;2023-08-12T04:12:49;13.28;;;3.37;;
79202;SDS011;68630;42.748;23.278;2023-08-12T04:15:16;12.28;;;3.40;;
79202;SDS011;68630;42.748;23.278;2023-08-12T04:17:46;10.15;;;3.50;;
79202;SDS011;68630;42.748;23.278;2023-08-12T04:20:13;13.32;;;3.75;;
79202;SDS011;68630;42.748;23.278;2023-08-12T04:22:41;10.18;;;3.60;;
79202;SDS011;68630;42.748;23.278;2023-08-12T04:25:08;14.53;;;3.25;;
79202;SDS011;68630;42.748;23.278;2023-08-12T04:27:36;14.63;;;3.83;;
79202;SDS011;68630;42.748;23.278;2023-08-12T04:32:31;16.07;;;3.90;;
79202;SDS011;68630;42.748;23.278;2023-08-12T04:34:58;10.45;;;3.25;;
79202;SDS011;68630;42.748;23.278;2023-08-12T04:37:26;9.00;;;3.62;;
79202;SDS011;68630;42.748;23.278;2023-08-12T04:39:57;8.65;;;3.22;;
79202;SDS011;68630;42.748;23.278;2023-08-12T04:42:25;4.80;;;3.22;;
79202;SDS011;68630;42.748;23.278;2023-08-12T04:44:55;9.45;;;3.05;;
79202;SDS011;68630;42.748;23.278;2023-08-12T04:47:23;7.20;;;3.17;;
79202;SDS011;68630;42.748;23.278;2023-08-12T04:49:51;7.75;;;3.33;;
79202;SDS011;68630;42.748;23.278;2023-08-12T04:52:19;6.37;;;2.67;;
79202;SDS011;68630;42.748;23.278;2023-08-12T04:54:46;8.78;;;3.15;;
79202;SDS011;68630;42.748;23.278;2023-08-12T04:57:14;6.45;;;3.05;;
79202;SDS011;68630;42.748;23.278;2023-08-12T04:59:41;7.15;;;3.33;;
79202;SDS011;68630;42.748;23.278;2023-08-12T05:02:09;8.75;;;3.15;;
79202;SDS011;68630;42.748;23.278;2023-08-12T05:04:37;7.97;;;2.80;;
79202;SDS011;68630;42.748;23.278;2023-08-12T05:07:04;8.78;;;2.90;;
79202;SDS011;68630;42.748;23.278;2023-08-12T05:09:32;10.43;;;3.17;;
79202;SDS011;68630;42.748;23.278;2023-08-12T05:11:59;5.95;;;3.10;;
79202;SDS011;68630;42.748;23.278;2023-08-12T05:14:27;7.00;;;2.95;;
79202;SDS011;68630;42.748;23.278;2023-08-12T05:16:54;11.53;;;3.05;;
79202;SDS011;68630;42.748;23.278;2023-08-12T05:19:22;3.55;;;2.60;;
79202;SDS011;68630;42.748;23.278;2023-08-12T05:21:49;7.85;;;2.67;;
79202;SDS011;68630;42.748;23.278;2023-08-12T05:24:17;6.85;;;2.90;;
79202;SDS011;68630;42.748;23.278;2023-08-12T05:26:44;9.75;;;2.62;;
79202;SDS011;68630;42.748;23.278;2023-08-12T05:29:13;4.95;;;2.70;;
79202;SDS011;68630;42.748;23.278;2023-08-12T05:31:40;9.88;;;2.52;;
79202;SDS011;68630;42.748;23.278;2023-08-12T05:34:08;9.45;;;3.00;;
79202;SDS011;68630;42.748;23.278;2023-08-12T05:36:36;9.15;;;2.50;;
79202;SDS011;68630;42.748;23.278;2023-08-12T05:39:03;8.65;;;2.92;;
79202;SDS011;68630;42.748;23.278;2023-08-12T05:41:32;3.98;;;2.30;;
79202;SDS011;68630;42.748;23.278;2023-08-12T05:44:00;8.10;;;2.60;;
79202;SDS011;68630;42.748;23.278;2023-08-12T05:46:27;6.83;;;2.72;;
79202;SDS011;68630;42.748;23.278;2023-08-12T05:48:55;10.50;;;2.87;;
79202;SDS011;68630;42.748;23.278;2023-08-12T05:51:23;4.15;;;2.60;;
79202;SDS011;68630;42.748;23.278;2023-08-12T05:53:51;11.00;;;3.10;;
79202;SDS011;68630;42.748;23.278;2023-08-12T05:56:19;6.42;;;2.70;;
79202;SDS011;68630;42.748;23.278;2023-08-12T05:58:46;7.08;;;2.67;;
79202;SDS011;68630;42.748;23.278;2023-08-12T06:01:14;7.50;;;3.00;;
79202;SDS011;68630;42.748;23.278;2023-08-12T06:03:45;6.12;;;3.10;;
79202;SDS011;68630;42.748;23.278;2023-08-12T06:06:18;7.17;;;2.55;;
79202;SDS011;68630;42.748;23.278;2023-08-12T06:08:49;8.00;;;2.67;;
79202;SDS011;68630;42.748;23.278;2023-08-12T06:11:16;9.55;;;2.85;;
79202;SDS011;68630;42.748;23.278;2023-08-12T06:13:52;9.60;;;2.60;;
79202;SDS011;68630;42.748;23.278;2023-08-12T06:16:16;5.47;;;2.50;;
79202;SDS011;68630;42.748;23.278;2023-08-12T06:18:43;4.55;;;2.47;;
79202;SDS011;68630;42.748;23.278;2023-08-12T06:21:11;7.30;;;2.47;;
79202;SDS011;68630;42.748;23.278;2023-08-12T06:23:38;11.38;;;2.58;;
79202;SDS011;68630;42.748;23.278;2023-08-12T06:26:06;11.35;;;2.60;;
79202;SDS011;68630;42.748;23.278;2023-08-12T06:28:34;7.83;;;2.25;;
79202;SDS011;68630;42.748;23.278;2023-08-12T06:31:04;7.30;;;2.62;;
79202;SDS011;68630;42.748;23.278;2023-08-12T06:33:36;9.70;;;2.65;;
79202;SDS011;68630;42.748;23.278;2023-08-12T06:36:08;9.05;;;2.83;;
79202;SDS011;68630;42.748;23.278;2023-08-12T06:38:41;10.07;;;2.57;;
79202;SDS011;68630;42.748;23.278;2023-08-12T06:41:09;13.40;;;2.70;;
79202;SDS011;68630;42.748;23.278;2023-08-12T06:43:37;9.83;;;2.30;;
79202;SDS011;68630;42.748;23.278;2023-08-12T06:46:04;5.17;;;2.10;;
79202;SDS011;68630;42.748;23.278;2023-08-12T06:48:39;7.55;;;2.40;;
79202;SDS011;68630;42.748;23.278;2023-08-12T06:51:04;6.78;;;1.95;;
79202;SDS011;68630;42.748;23.278;2023-08-12T06:53:38;8.53;;;2.35;;
79202;SDS011;68630;42.748;23.278;2023-08-12T06:56:06;5.95;;;2.12;;
79202;SDS011;68630;42.748;23.278;2023-08-12T06:58:32;6.22;;;2.33;;
79202;SDS011;68630;42.748;23.278;2023-08-12T07:01:01;12.00;;;2.05;;
79202;SDS011;68630;42.748;23.278;2023-08-12T07:03:30;6.58;;;2.20;;
79202;SDS011;68630;42.748;23.278;2023-08-12T07:05:58;7.35;;;2.00;;
79202;SDS011;68630;42.748;23.278;2023-08-12T07:08:31;9.80;;;2.40;;
79202;SDS011;68630;42.748;23.278;2023-08-12T07:10:55;8.55;;;2.25;;
79202;SDS011;68630;42.748;23.278;2023-08-12T07:13:23;7.53;;;2.72;;
79202;SDS011;68630;42.748;23.278;2023-08-12T07:15:55;7.85;;;2.20;;
79202;SDS011;68630;42.748;23.278;2023-08-12T07:18:23;6.53;;;2.20;;
79202;SDS011;68630;42.748;23.278;2023-08-12T07:20:58;7.03;;;2.65;;
79202;SDS011;68630;42.748;23.278;2023-08-12T07:23:28;5.47;;;2.45;;
79202;SDS011;68630;42.748;23.278;2023-08-12T07:25:57;7.35;;;2.40;;
79202;SDS011;68630;42.748;23.278;2023-08-12T07:28:25;3.08;;;2.20;;
79202;SDS011;68630;42.748;23.278;2023-08-12T07:30:54;5.53;;;2.60;;
79202;SDS011;68630;42.748;23.278;2023-08-12T07:33:23;3.70;;;2.15;;
79202;SDS011;68630;42.748;23.278;2023-08-12T07:35:52;4.28;;;2.27;;
79202;SDS011;68630;42.748;23.278;2023-08-12T07:38:20;17.02;;;2.67;;
79202;SDS011;68630;42.748;23.278;2023-08-12T07:40:49;6.37;;;2.15;;
79202;SDS011;68630;42.748;23.278;2023-08-12T07:43:18;8.63;;;2.05;;
79202;SDS011;68630;42.748;23.278;2023-08-12T07:45:50;3.50;;;2.25;;
79202;SDS011;68630;42.748;23.278;2023-08-12T07:51:01;6.90;;;2.40;;
79202;SDS011;68630;42.748;23.278;2023-08-12T07:53:29;3.45;;;1.98;;
79202;SDS011;68630;42.748;23.278;2023-08-12T07:55:57;5.00;;;1.95;;
79202;SDS011;68630;42.748;23.278;2023-08-12T07:58:30;3.52;;;1.90;;
79202;SDS011;68630;42.748;23.278;2023-08-12T08:00:54;7.00;;;1.87;;
79202;SDS011;68630;42.748;23.278;2023-08-12T08:03:22;8.23;;;2.62;;
79202;SDS011;68630;42.748;23.278;2023-08-12T08:05:49;4.62;;;2.05;;
79202;SDS011;68630;42.748;23.278;2023-08-12T08:08:19;5.50;;;2.20;;
79202;SDS011;68630;42.748;23.278;2023-08-12T08:10:50;6.22;;;2.35;;
79202;SDS011;68630;42.748;23.278;2023-08-12T08:13:19;6.08;;;2.22;;
79202;SDS011;68630;42.748;23.278;2023-08-12T08:15:57;5.50;;;2.10;;
79202;SDS011;68630;42.748;23.278;2023-08-12T08:18:20;3.87;;;2.08;;
79202;SDS011;68630;42.748;23.278;2023-08-12T08:20:48;4.10;;;1.70;;
79202;SDS011;68630;42.748;23.278;2023-08-12T08:23:18;3.58;;;2.15;;
79202;SDS011;68630;42.748;23.278;2023-08-12T08:25:46;11.28;;;2.30;;
79202;SDS011;68630;42.748;23.278;2023-08-12T08:28:14;3.83;;;2.08;;
79202;SDS011;68630;42.748;23.278;2023-08-12T08:30:41;5.35;;;2.30;;
79202;SDS011;68630;42.748;23.278;2023-08-12T08:33:10;6.25;;;2.00;;
79202;SDS011;68630;42.748;23.278;2023-08-12T08:35:39;4.03;;;2.08;;
79202;SDS011;68630;42.748;23.278;2023-08-12T08:38:07;4.58;;;1.72;;
79202;SDS011;68630;42.748;23.278;2023-08-12T08:40:34;5.47;;;1.87;;
79202;SDS011;68630;42.748;23.278;2023-08-12T08:43:02;4.35;;;1.90;;
79202;SDS011;68630;42.748;23.278;2023-08-12T08:45:32;5.85;;;2.00;;
79202;SDS011;68630;42.748;23.278;2023-08-12T08:48:00;8.40;;;2.27;;
79202;SDS011;68630;42.748;23.278;2023-08-12T08:50:33;1.92;;;1.50;;
79202;SDS011;68630;42.748;23.278;2023-08-12T08:53:01;7.87;;;1.90;;
79202;SDS011;68630;42.748;23.278;2023-08-12T08:55:37;6.80;;;1.98;;
79202;SDS011;68630;42.748;23.278;2023-08-12T08:58:06;3.67;;;2.02;;
79202;SDS011;68630;42.748;23.278;2023-08-12T09:00:35;6.22;;;1.85;;
79202;SDS011;68630;42.748;23.278;2023-08-12T09:03:06;13.70;;;2.10;;
79202;SDS011;68630;42.748;23.278;2023-08-12T09:05:36;6.10;;;2.00;;
79202;SDS011;68630;42.748;23.278;2023-08-12T09:08:06;6.92;;;1.85;;
79202;SDS011;68630;42.748;23.278;2023-08-12T09:10:42;8.10;;;1.85;;
79202;SDS011;68630;42.748;23.278;2023-08-12T09:13:06;3.47;;;1.55;;
79202;SDS011;68630;42.748;23.278;2023-08-12T09:15:39;6.47;;;1.82;;
79202;SDS011;68630;42.748;23.278;2023-08-12T09:18:06;6.42;;;1.90;;
79202;SDS011;68630;42.748;23.278;2023-08-12T09:20:34;4.72;;;2.33;;
79202;SDS011;68630;42.748;23.278;2023-08-12T09:25:41;4.37;;;1.70;;
79202;SDS011;68630;42.748;23.278;2023-08-12T09:28:10;4.55;;;1.72;;
79202;SDS011;68630;42.748;23.278;2023-08-12T09:30:38;3.10;;;1.60;;
79202;SDS011;68630;42.748;23.278;2023-08-12T09:33:06;5.97;;;1.80;;
79202;SDS011;68630;42.748;23.278;2023-08-12T09:35:40;2.90;;;1.95;;
79202;SDS011;68630;42.748;23.278;2023-08-12T09:38:13;6.85;;;2.00;;
79202;SDS011;68630;42.748;23.278;2023-08-12T09:40:40;2.77;;;2.02;;
79202;SDS011;68630;42.748;23.278;2023-08-12T09:43:08;3.22;;;1.80;;
79202;SDS011;68630;42.748;23.278;2023-08-12T09:45:37;2.72;;;1.80;;
79202;SDS011;68630;42.748;23.278;2023-08-12T09:48:04;4.37;;;1.60;;
79202;SDS011;68630;42.748;23.278;2023-08-12T09:50:34;7.80;;;1.70;;
79202;SDS011;68630;42.748;23.278;2023-08-12T09:53:03;4.67;;;3.35;;
79202;SDS011;68630;42.748;23.278;2023-08-12T09:55:30;3.25;;;1.87;;
79202;SDS011;68630;42.748;23.278;2023-08-12T09:58:00;4.80;;;1.98;;
79202;SDS011;68630;42.748;23.278;2023-08-12T10:00:30;6.12;;;1.67;;
79202;SDS011;68630;42.748;23.278;2023-08-12T10:02:57;2.17;;;1.40;;
79202;SDS011;68630;42.748;23.278;2023-08-12T10:05:27;4.15;;;1.87;;
79202;SDS011;68630;42.748;23.278;2023-08-12T10:07:57;2.92;;;1.77;;
79202;SDS011;68630;42.748;23.278;2023-08-12T10:10:27;3.33;;;1.87;;
79202;SDS011;68630;42.748;23.278;2023-08-12T10:12:55;4.53;;;1.42;;
79202;SDS011;68630;42.748;23.278;2023-08-12T10:15:23;11.68;;;1.60;;
79202;SDS011;68630;42.748;23.278;2023-08-12T10:17:51;2.77;;;1.52;;
79202;SDS011;68630;42.748;23.278;2023-08-12T10:20:23;3.15;;;1.70;;
79202;SDS011;68630;42.748;23.278;2023-08-12T10:22:51;3.62;;;1.42;;
79202;SDS011;68630;42.748;23.278;2023-08-12T10:25:20;8.08;;;2.10;;
79202;SDS011;68630;42.748;23.278;2023-08-12T10:27:48;3.10;;;1.45;;
79202;SDS011;68630;42.748;23.278;2023-08-12T10:30:16;2.27;;;1.98;;
79202;SDS011;68630;42.748;23.278;2023-08-12T10:32:43;3.72;;;1.60;;
79202;SDS011;68630;42.748;23.278;2023-08-12T10:35:13;2.55;;;1.60;;
79202;SDS011;68630;42.748;23.278;2023-08-12T10:37:40;6.45;;;1.60;;
79202;SDS011;68630;42.748;23.278;2023-08-12T10:40:19;2.20;;;1.70;;
79202;SDS011;68630;42.748;23.278;2023-08-12T10:42:39;2.60;;;1.90;;
79202;SDS011;68630;42.748;23.278;2023-08-12T10:45:09;4.12;;;1.80;;
79202;SDS011;68630;42.748;23.278;2023-08-12T10:47:41;3.40;;;2.08;;
79202;SDS011;68630;42.748;23.278;2023-08-12T10:50:21;2.50;;;1.67;;
79202;SDS011;68630;42.748;23.278;2023-08-12T10:52:45;1.65;;;1.52;;
79202;SDS011;68630;42.748;23.278;2023-08-12T10:55:23;4.50;;;2.05;;
79202;SDS011;68630;42.748;23.278;2023-08-12T10:57:52;5.08;;;1.92;;
79202;SDS011;68630;42.748;23.278;2023-08-12T11:00:24;3.80;;;1.72;;
79202;SDS011;68630;42.748;23.278;2023-08-12T11:02:53;9.50;;;1.80;;
79202;SDS011;68630;42.748;23.278;2023-08-12T11:05:22;9.08;;;1.70;;
79202;SDS011;68630;42.748;23.278;2023-08-12T11:07:58;6.10;;;1.40;;
79202;SDS011;68630;42.748;23.278;2023-08-12T11:10:30;7.37;;;1.60;;
79202;SDS011;68630;42.748;23.278;2023-08-12T11:12:58;4.67;;;1.70;;
79202;SDS011;68630;42.748;23.278;2023-08-12T11:18:08;4.40;;;1.60;;
79202;SDS011;68630;42.748;23.278;2023-08-12T11:20:36;2.37;;;1.42;;
79202;SDS011;68630;42.748;23.278;2023-08-12T11:23:05;3.47;;;1.55;;
79202;SDS011;68630;42.748;23.278;2023-08-12T11:25:34;2.60;;;1.70;;
79202;SDS011;68630;42.748;23.278;2023-08-12T11:28:03;3.98;;;1.60;;
79202;SDS011;68630;42.748;23.278;2023-08-12T11:30:33;2.80;;;1.37;;
79202;SDS011;68630;42.748;23.278;2023-08-12T11:33:01;5.60;;;1.60;;
79202;SDS011;68630;42.748;23.278;2023-08-12T11:35:28;5.50;;;1.72;;
79202;SDS011;68630;42.748;23.278;2023-08-12T11:37:56;2.75;;;1.70;;
79202;SDS011;68630;42.748;23.278;2023-08-12T11:40:31;5.15;;;1.98;;
79202;SDS011;68630;42.748;23.278;2023-08-12T11:42:55;4.00;;;1.85;;
79202;SDS011;68630;42.748;23.278;2023-08-12T11:45:23;4.37;;;1.90;;
79202;SDS011;68630;42.748;23.278;2023-08-12T11:47:51;5.42;;;2.42;;
79202;SDS011;68630;42.748;23.278;2023-08-12T11:50:25;2.75;;;1.80;;
79202;SDS011;68630;42.748;23.278;2023-08-12T11:52:50;6.22;;;2.20;;
79202;SDS011;68630;42.748;23.278;2023-08-12T11:55:19;4.15;;;1.85;;
79202;SDS011;68630;42.748;23.278;2023-08-12T11:57:47;3.62;;;1.65;;
79202;SDS011;68630;42.748;23.278;2023-08-12T12:00:17;2.72;;;1.90;;
79202;SDS011;68630;42.748;23.278;2023-08-12T12:02:54;5.78;;;2.30;;
79202;SDS011;68630;42.748;23.278;2023-08-12T12:05:23;4.03;;;2.00;;
79202;SDS011;68630;42.748;23.278;2023-08-12T12:07:59;4.95;;;2.10;;
79202;SDS011;68630;42.748;23.278;2023-08-12T12:10:31;5.50;;;2.47;;
79202;SDS011;68630;42.748;23.278;2023-08-12T12:13:00;6.65;;;1.98;;
79202;SDS011;68630;42.748;23.278;2023-08-12T12:15:29;7.00;;;1.92;;
79202;SDS011;68630;42.748;23.278;2023-08-12T12:17:57;9.90;;;2.05;;
79202;SDS011;68630;42.748;23.278;2023-08-12T12:20:25;4.00;;;2.10;;
79202;SDS011;68630;42.748;23.278;2023-08-12T12:22:54;3.25;;;2.10;;
79202;SDS011;68630;42.748;23.278;2023-08-12T12:25:22;16.17;;;2.27;;
79202;SDS011;68630;42.748;23.278;2023-08-12T12:27:49;4.37;;;2.20;;
79202;SDS011;68630;42.748;23.278;2023-08-12T12:30:19;3.70;;;2.15;;
79202;SDS011;68630;42.748;23.278;2023-08-12T12:32:47;3.85;;;1.90;;
79202;SDS011;68630;42.748;23.278;2023-08-12T12:35:14;2.80;;;1.92;;
79202;SDS011;68630;42.748;23.278;2023-08-12T12:37:45;5.03;;;1.80;;
79202;SDS011;68630;42.748;23.278;2023-08-12T12:40:12;9.05;;;2.75;;
79202;SDS011;68630;42.748;23.278;2023-08-12T12:42:40;2.85;;;1.82;;
79202;SDS011;68630;42.748;23.278;2023-08-12T12:45:08;3.25;;;1.60;;
79202;SDS011;68630;42.748;23.278;2023-08-12T12:47:36;3.25;;;1.40;;
79202;SDS011;68630;42.748;23.278;2023-08-12T12:50:04;2.33;;;1.50;;
79202;SDS011;68630;42.748;23.278;2023-08-12T12:52:32;4.60;;;1.90;;
79202;SDS011;68630;42.748;23.278;2023-08-12T12:54:59;3.67;;;2.20;;
79202;SDS011;68630;42.748;23.278;2023-08-12T12:57:28;4.37;;;2.00;;
79202;SDS011;68630;42.748;23.278;2023-08-12T12:59:56;2.95;;;2.08;;
79202;SDS011;68630;42.748;23.278;2023-08-12T13:02:23;4.90;;;1.67;;
79202;SDS011;68630;42.748;23.278;2023-08-12T13:04:51;4.87;;;1.80;;
79202;SDS011;68630;42.748;23.278;2023-08-12T13:07:19;2.95;;;1.92;;
79202;SDS011;68630;42.748;23.278;2023-08-12T13:09:46;2.98;;;1.70;;
79202;SDS011;68630;42.748;23.278;2023-08-12T13:12:14;3.65;;;1.70;;
79202;SDS011;68630;42.748;23.278;2023-08-12T13:14:41;10.65;;;1.82;;
79202;SDS011;68630;42.748;23.278;2023-08-12T13:17:09;3.42;;;1.80;;
79202;SDS011;68630;42.748;23.278;2023-08-12T13:19:36;5.47;;;2.02;;
79202;SDS011;68630;42.748;23.278;2023-08-12T13:22:04;7.55;;;2.33;;
79202;SDS011;68630;42.748;23.278;2023-08-12T13:24:31;2.33;;;2.08;;
79202;SDS011;68630;42.748;23.278;2023-08-12T13:26:59;5.85;;;1.80;;
79202;SDS011;68630;42.748;23.278;2023-08-12T13:29:29;1.65;;;1.40;;
79202;SDS011;68630;42.748;23.278;2023-08-12T13:31:57;2.87;;;1.50;;
79202;SDS011;68630;42.748;23.278;2023-08-12T13:34:25;2.95;;;1.52;;
79202;SDS011;68630;42.748;23.278;2023-08-12T13:36:52;3.22;;;1.60;;
79202;SDS011;68630;42.748;23.278;2023-08-12T13:39:20;3.42;;;1.62;;
79202;SDS011;68630;42.748;23.278;2023-08-12T13:41:47;2.83;;;1.72;;
79202;SDS011;68630;42.748;23.278;2023-08-12T13:44:15;3.20;;;1.72;;
79202;SDS011;68630;42.748;23.278;2023-08-12T13:46:43;2.60;;;1.95;;
79202;SDS011;68630;42.748;23.278;2023-08-12T13:49:10;4.53;;;1.60;;
79202;SDS011;68630;42.748;23.278;2023-08-12T13:51:38;3.42;;;1.72;;
79202;SDS011;68630;42.748;23.278;2023-08-12T13:54:06;8.70;;;1.70;;
79202;SDS011;68630;42.748;23.278;2023-08-12T13:56:33;2.00;;;1.52;;
79202;SDS011;68630;42.748;23.278;2023-08-12T13:59:01;2.58;;;1.67;;
79202;SDS011;68630;42.748;23.278;2023-08-12T14:01:28;2.22;;;1.65;;
79202;SDS011;68630;42.748;23.278;2023-08-12T14:03:56;4.22;;;1.80;;
79202;SDS011;68630;42.748;23.278;2023-08-12T14:06:23;4.53;;;1.52;;
79202;SDS011;68630;42.748;23.278;2023-08-12T14:08:51;2.05;;;1.70;;
79202;SDS011;68630;42.748;23.278;2023-08-12T14:11:18;3.80;;;1.47;;
79202;SDS011;68630;42.748;23.278;2023-08-12T14:13:46;2.10;;;1.60;;
79202;SDS011;68630;42.748;23.278;2023-08-12T14:16:13;3.72;;;1.45;;
79202;SDS011;68630;42.748;23.278;2023-08-12T14:18:41;2.27;;;1.57;;
79202;SDS011;68630;42.748;23.278;2023-08-12T14:21:08;3.62;;;1.70;;
79202;SDS011;68630;42.748;23.278;2023-08-12T14:23:36;1.98;;;1.30;;
79202;SDS011;68630;42.748;23.278;2023-08-12T14:26:03;3.40;;;1.57;;
79202;SDS011;68630;42.748;23.278;2023-08-12T14:28:31;3.10;;;1.50;;
79202;SDS011;68630;42.748;23.278;2023-08-12T14:30:58;4.25;;;1.75;;
79202;SDS011;68630;42.748;23.278;2023-08-12T14:33:26;2.75;;;1.50;;
79202;SDS011;68630;42.748;23.278;2023-08-12T14:36:00;4.55;;;1.50;;
79202;SDS011;68630;42.748;23.278;2023-08-12T14:38:24;2.58;;;1.47;;
79202;SDS011;68630;42.748;23.278;2023-08-12T14:40:52;3.22;;;1.60;;
79202;SDS011;68630;42.748;23.278;2023-08-12T14:43:19;3.47;;;1.55;;
79202;SDS011;68630;42.748;23.278;2023-08-12T14:45:51;2.30;;;1.20;;
79202;SDS011;68630;42.748;23.278;2023-08-12T14:48:18;6.67;;;1.50;;
79202;SDS011;68630;42.748;23.278;2023-08-12T14:50:46;4.90;;;1.60;;
79202;SDS011;68630;42.748;23.278;2023-08-12T14:53:14;4.67;;;1.15;;
79202;SDS011;68630;42.748;23.278;2023-08-12T14:55:41;3.20;;;1.50;;
79202;SDS011;68630;42.748;23.278;2023-08-12T14:58:09;6.50;;;1.70;;
79202;SDS011;68630;42.748;23.278;2023-08-12T15:00:36;2.25;;;1.75;;